Terminal Aerodrome Forecast
Issued by NWS Atlanta, GA

Home | Current Version | Previous Version | Text Only | Print | Product List | Glossary On
Versions: 1 2 3 4 5 6 7 8 9 10 11 12 13 14 15 16 17 18 19 20 21 22 23
000
FTUS42 KFFC 170500
TAFCSG
TAF
KCSG 170535Z 1706/1806 10006KT P6SM SKC
     FM171300 08010KT P6SM SCT025 BKN250
     FM171600 10010G20KT P6SM SCT040 BKN250
     FM172000 10009G16KT P6SM BKN040
     FM180000 09009KT P6SM BKN035=

USA.gov is the U.S. government's official web portal to all federal, state and local government web resources and services.